Time;durP1;ratioP1;P1;durP2;ratioP2;P2;SDS_P1;SDS_P2;PMS_P1;PMS_P2;Temp;Humidity;BMP_temperature;BMP_pressure;BME280_temperature;BME280_humidity;BME280_pressure;Samples;Min_cycle;Max_cycle;Signal;HPM_P1;HPM_P2
2023/08/03 00:01:13;;;;;;;;;;;;;;;16.15;100.00;94593.31;10530445;28;1965;-86
2023/08/03 00:06:19;;;;;;;;;;;;;;;16.16;100.00;94607.69;10507522;28;2316;-86
2023/08/03 00:11:26;;;;;;;;;;;;;;;16.19;100.00;94605.06;10520118;28;2024;-85
2023/08/03 00:16:48;;;;;;;;;;;;;;;16.35;100.00;94607.09;10528190;28;1885;-84
2023/08/03 00:21:57;;;;;;;;;;;;;;;16.17;100.00;94593.78;10522138;28;2004;-83
2023/08/03 00:27:04;;;;;;;;;;;;;;;16.35;100.00;94594.38;10530096;28;1896;-82
2023/08/03 00:32:13;;;;;;;;;;;;;;;16.12;100.00;94594.00;10530111;28;2117;-82
2023/08/03 00:37:32;;;;;;;;;;;;;;;16.14;100.00;94613.41;10548334;28;4363;-83
2023/08/03 00:42:42;;;;;;;;;;;;;;;16.21;100.00;94608.22;10562037;28;1982;-84
2023/08/03 00:47:48;;;;;;;;;;;;;;;16.06;100.00;94589.91;10548149;28;2226;-85
2023/08/03 00:52:54;;;;;;;;;;;;;;;16.36;100.00;94597.88;10557492;28;2165;-85
2023/08/03 00:57:58;;;;;;;;;;;;;;;16.23;100.00;94597.06;10569342;28;2070;-84
2023/08/03 01:03:01;;;;;;;;;;;;;;;16.06;100.00;94589.91;10534910;28;2502;-84
2023/08/03 01:08:22;;;;;;;;;;;;;;;15.96;100.00;94593.06;10540833;28;1983;-85
2023/08/03 01:13:41;;;;;;;;;;;;;;;15.82;100.00;94574.41;10531315;28;2235;-86
2023/08/03 01:18:49;;;;;;;;;;;;;;;15.78;100.00;94588.97;10511361;28;1914;-84
2023/08/03 01:24:03;;;;;;;;;;;;;;;16.08;100.00;94581.44;10524312;28;2356;-83
2023/08/03 01:29:13;;;;;;;;;;;;;;;16.07;100.00;94564.38;10522631;28;1939;-82
2023/08/03 01:34:23;;;;;;;;;;;;;;;15.87;100.00;94570.69;10526372;28;1961;-82
2023/08/03 01:39:42;;;;;;;;;;;;;;;15.92;100.00;94570.47;10519785;28;4645;-81
2023/08/03 01:45:00;;;;;;;;;;;;;;;15.94;100.00;94566.28;10527454;28;1872;-81
2023/08/03 01:55:25;;;;;;;;;;;;;;;16.06;100.00;94562.81;10522349;28;1939;-83
2023/08/03 02:00:34;;;;;;;;;;;;;;;16.17;100.00;94565.88;10523164;28;2501;-83
2023/08/03 02:06:02;;;;;;;;;;;;;;;16.14;100.00;94566.53;10516955;28;1898;-82
2023/08/03 02:11:16;;;;;;;;;;;;;;;16.14;100.00;94580.09;10521425;28;1885;-84
2023/08/03 02:16:56;;;;;;;;;;;;;;;16.45;100.00;94579.53;10519027;28;1968;-83
2023/08/03 02:33:30;;;;;;;;;;;;;;;15.97;100.00;94564.84;10521459;28;2383;-84
2023/08/03 02:38:58;;;;;;;;;;;;;;;16.04;100.00;94570.50;10500473;28;4522;-86
2023/08/03 02:44:17;;;;;;;;;;;;;;;15.94;100.00;94570.94;10521905;28;2021;-84
2023/08/03 02:49:29;;;;;;;;;;;;;;;15.95;100.00;94567.88;10512923;28;2034;-84
2023/08/03 02:54:51;;;;;;;;;;;;;;;15.92;100.00;94578.59;10500652;28;2420;-87
2023/08/03 03:00:06;;;;;;;;;;;;;;;15.84;100.00;94587.59;10517424;28;2044;-86
2023/08/03 03:05:32;;;;;;;;;;;;;;;15.98;100.00;94598.94;10532446;28;2078;-83
2023/08/03 03:10:46;;;;;;;;;;;;;;;16.13;100.00;94590.16;10525439;28;1987;-86
2023/08/03 03:21:14;;;;;;;;;;;;;;;16.07;100.00;94555.47;10529820;28;1977;-84
2023/08/03 03:26:27;;;;;;;;;;;;;;;16.00;100.00;94560.66;10530824;28;1919;-87
2023/08/03 03:36:56;;;;;;;;;;;;;;;15.80;100.00;94578.59;10530667;28;6671;-86
2023/08/03 03:42:01;;;;;;;;;;;;;;;15.88;100.00;94577.69;10513623;28;5424;-85
2023/08/03 03:47:13;;;;;;;;;;;;;;;16.01;100.00;94590.13;10537694;28;1963;-84
2023/08/03 03:52:29;;;;;;;;;;;;;;;16.17;100.00;94585.66;10526754;28;5525;-86
2023/08/03 03:57:50;;;;;;;;;;;;;;;16.56;100.00;94580.69;10545496;28;2099;-85
2023/08/03 04:03:07;;;;;;;;;;;;;;;16.41;100.00;94586.75;10545727;28;1963;-83
2023/08/03 04:08:15;;;;;;;;;;;;;;;16.38;100.00;94595.59;10559130;28;5444;-85
2023/08/03 04:13:22;;;;;;;;;;;;;;;16.29;100.00;94593.00;10544151;28;1941;-86
2023/08/03 04:18:27;;;;;;;;;;;;;;;16.49;100.00;94607.59;10535701;28;2075;-85
2023/08/03 04:23:50;;;;;;;;;;;;;;;16.56;100.00;94599.66;10538142;28;1973;-85
2023/08/03 04:28:57;;;;;;;;;;;;;;;16.57;100.00;94601.25;10535872;28;1974;-85
2023/08/03 04:34:25;;;;;;;;;;;;;;;16.74;100.00;94597.53;10536606;28;2107;-85
2023/08/03 04:50:10;;;;;;;;;;;;;;;17.37;100.00;94610.63;10523292;28;1986;-87
2023/08/03 04:55:23;;;;;;;;;;;;;;;17.33;100.00;94607.03;10514574;28;1978;-87
2023/08/03 05:00:33;;;;;;;;;;;;;;;17.58;100.00;94608.53;10507981;28;2073;-86
2023/08/03 05:05:36;;;;;;;;;;;;;;;17.78;100.00;94607.56;10526189;28;2023;-86
2023/08/03 05:16:13;;;;;;;;;;;;;;;18.15;100.00;94614.72;10535612;28;2033;-85
2023/08/03 05:21:28;;;;;;;;;;;;;;;18.12;100.00;94599.88;10536184;28;2034;-86
2023/08/03 05:26:52;;;;;;;;;;;;;;;18.09;100.00;94597.88;10526584;28;1998;-85
2023/08/03 05:32:02;;;;;;;;;;;;;;;17.94;100.00;94598.63;10507112;28;2069;-86
2023/08/03 05:37:09;;;;;;;;;;;;;;;18.24;100.00;94588.91;10508591;28;1984;-83
2023/08/03 05:42:32;;;;;;;;;;;;;;;18.29;100.00;94583.22;10537322;28;5140;-84
2023/08/03 05:47:42;;;;;;;;;;;;;;;18.30;100.00;94579.34;10525549;28;2034;-83
2023/08/03 05:52:59;;;;;;;;;;;;;;;18.46;100.00;94592.97;10526445;28;1948;-81
2023/08/03 05:58:13;;;;;;;;;;;;;;;18.37;100.00;94605.94;10525097;28;1951;-80
2023/08/03 06:03:20;;;;;;;;;;;;;;;18.34;100.00;94612.88;10524217;28;2097;-82
2023/08/03 06:08:28;;;;;;;;;;;;;;;18.43;100.00;94611.91;10510493;28;2089;-84
2023/08/03 06:13:42;;;;;;;;;;;;;;;18.49;100.00;94618.66;10533315;28;1947;-82
2023/08/03 06:18:54;;;;;;;;;;;;;;;18.65;100.00;94643.97;10528853;28;1906;-82
2023/08/03 06:23:57;;;;;;;;;;;;;;;18.75;100.00;94610.78;10527486;28;2102;-83
2023/08/03 06:29:06;;;;;;;;;;;;;;;19.15;100.00;94628.81;10525413;28;1980;-82
2023/08/03 06:34:09;;;;;;;;;;;;;;;19.06;100.00;94637.16;10534833;28;2245;-83
2023/08/03 06:39:28;;;;;;;;;;;;;;;19.35;100.00;94638.59;10520039;28;1977;-83
2023/08/03 06:44:40;;;;;;;;;;;;;;;19.32;100.00;94643.94;10510648;28;5246;-84
2023/08/03 06:49:44;;;;;;;;;;;;;;;19.54;100.00;94639.75;10519314;28;1984;-83
2023/08/03 06:54:51;;;;;;;;;;;;;;;19.58;100.00;94659.72;10524540;28;2032;-81
2023/08/03 06:59:55;;;;;;;;;;;;;;;19.34;100.00;94647.91;10520688;28;1988;-82
2023/08/03 07:05:00;;;;;;;;;;;;;;;19.17;100.00;94649.09;10511299;28;1947;-81
2023/08/03 07:10:21;;;;;;;;;;;;;;;19.52;100.00;94631.91;10525037;28;1952;-81
2023/08/03 07:15:26;;;;;;;;;;;;;;;19.80;100.00;94645.38;10520393;28;1961;-80
2023/08/03 07:20:35;;;;;;;;;;;;;;;19.76;100.00;94643.72;10519938;28;1955;-85
2023/08/03 07:25:53;;;;;;;;;;;;;;;19.43;100.00;94655.88;10520686;28;2081;-83
2023/08/03 07:31:04;;;;;;;;;;;;;;;19.87;100.00;94648.25;10504412;28;2242;-83
2023/08/03 07:36:12;;;;;;;;;;;;;;;19.58;100.00;94648.81;10501082;28;1948;-83
2023/08/03 07:41:17;;;;;;;;;;;;;;;20.22;100.00;94663.69;10517206;28;1957;-83
2023/08/03 07:46:24;;;;;;;;;;;;;;;20.36;100.00;94669.44;10507706;28;1977;-84
2023/08/03 07:51:27;;;;;;;;;;;;;;;20.69;98.40;94665.34;10528219;28;2086;-77
2023/08/03 07:56:33;;;;;;;;;;;;;;;21.03;97.26;94671.75;10533004;28;1973;-75
2023/08/03 08:01:47;;;;;;;;;;;;;;;21.06;94.52;94681.94;10528663;28;1994;-79
2023/08/03 08:06:57;;;;;;;;;;;;;;;21.31;95.43;94674.13;10506783;28;2048;-77
2023/08/03 08:12:02;;;;;;;;;;;;;;;20.96;92.47;94685.28;10530628;28;1990;-77
2023/08/03 08:17:10;;;;;;;;;;;;;;;20.71;93.47;94693.06;10523047;28;1900;-76
2023/08/03 08:22:19;;;;;;;;;;;;;;;20.70;98.20;94694.22;10528114;28;1961;-75
2023/08/03 08:27:24;;;;;;;;;;;;;;;20.70;94.55;94686.81;10522108;28;2380;-75
2023/08/03 08:32:32;;;;;;;;;;;;;;;20.78;97.53;94712.31;10525858;28;1951;-77
2023/08/03 08:37:35;;;;;;;;;;;;;;;20.96;95.27;94724.31;10519206;28;1959;-75
2023/08/03 08:42:38;;;;;;;;;;;;;;;21.40;93.72;94701.22;10523553;28;5155;-76
2023/08/03 08:47:49;;;;;;;;;;;;;;;21.37;96.21;94715.59;10526407;28;1902;-76
2023/08/03 08:52:52;;;;;;;;;;;;;;;21.37;92.42;94710.94;10517695;28;1970;-75
2023/08/03 08:58:02;;;;;;;;;;;;;;;21.11;93.47;94724.56;10508843;28;2067;-75
2023/08/03 09:03:10;;;;;;;;;;;;;;;20.82;94.57;94739.69;10522170;28;1976;-73
2023/08/03 09:08:13;;;;;;;;;;;;;;;20.97;91.83;94742.28;10519044;28;1971;-76
2023/08/03 09:13:26;;;;;;;;;;;;;;;21.61;89.82;94736.28;10525493;28;2149;-78
2023/08/03 09:18:36;;;;;;;;;;;;;;;22.11;89.15;94737.75;10521684;28;1979;-78
2023/08/03 09:23:46;;;;;;;;;;;;;;;22.33;88.54;94753.28;10527471;28;2305;-79
2023/08/03 09:28:59;;;;;;;;;;;;;;;22.28;87.38;94750.09;10518756;28;1900;-80
2023/08/03 09:34:10;;;;;;;;;;;;;;;23.05;83.27;94746.63;10475994;28;1893;-76
2023/08/03 09:39:24;;;;;;;;;;;;;;;22.54;79.04;94741.78;10519401;28;1892;-78
2023/08/03 09:44:34;;;;;;;;;;;;;;;21.61;84.35;94750.72;10519781;28;5010;-78
2023/08/03 09:49:52;;;;;;;;;;;;;;;21.48;84.53;94747.41;10522724;28;1849;-78
2023/08/03 09:54:58;;;;;;;;;;;;;;;22.00;85.17;94754.00;10523456;28;2025;-78
2023/08/03 10:00:09;;;;;;;;;;;;;;;21.94;85.23;94766.44;10506589;28;1918;-76
2023/08/03 10:05:15;;;;;;;;;;;;;;;21.95;81.35;94762.56;10522319;28;1900;-77
2023/08/03 10:10:24;;;;;;;;;;;;;;;21.47;84.23;94775.91;10515729;28;1916;-75
2023/08/03 10:15:35;;;;;;;;;;;;;;;21.65;84.61;94765.25;10522494;28;1920;-76
2023/08/03 10:20:40;;;;;;;;;;;;;;;21.85;80.50;94776.88;10502244;28;2242;-75
2023/08/03 10:25:44;;;;;;;;;;;;;;;21.94;81.91;94788.31;10522106;28;1876;-75
2023/08/03 10:30:49;;;;;;;;;;;;;;;22.07;77.25;94789.66;10503743;28;1835;-75
2023/08/03 10:35:55;;;;;;;;;;;;;;;22.32;74.22;94787.28;10509961;28;1865;-75
2023/08/03 10:40:59;;;;;;;;;;;;;;;22.55;74.00;94795.38;10504626;28;5329;-75
2023/08/03 10:46:03;;;;;;;;;;;;;;;22.69;70.21;94794.75;10494958;28;1964;-75
2023/08/03 10:51:06;;;;;;;;;;;;;;;23.00;71.41;94788.06;10504526;28;1954;-74
2023/08/03 10:56:14;;;;;;;;;;;;;;;23.78;69.48;94793.44;10517629;28;1786;-75
2023/08/03 11:01:29;;;;;;;;;;;;;;;23.81;63.88;94795.44;10519091;28;1973;-76
2023/08/03 11:06:36;;;;;;;;;;;;;;;24.07;65.96;94782.66;10512058;28;2072;-77
2023/08/03 11:11:46;;;;;;;;;;;;;;;24.51;60.97;94779.75;10485823;28;2280;-76
2023/08/03 11:16:49;;;;;;;;;;;;;;;24.00;58.95;94778.69;10526639;28;2314;-75
2023/08/03 11:21:53;;;;;;;;;;;;;;;23.43;56.74;94766.50;10521182;28;2296;-75
2023/08/03 11:27:05;;;;;;;;;;;;;;;23.82;60.05;94764.06;10533543;28;1909;-76
2023/08/03 11:32:11;;;;;;;;;;;;;;;23.51;57.76;94778.31;10534406;28;1945;-75
2023/08/03 11:37:19;;;;;;;;;;;;;;;23.30;61.20;94762.50;10521715;28;1858;-75
2023/08/03 11:42:22;;;;;;;;;;;;;;;23.56;59.74;94764.25;10522003;28;5009;-75
2023/08/03 11:47:30;;;;;;;;;;;;;;;23.24;61.36;94767.53;10526379;28;1861;-76
2023/08/03 11:52:36;;;;;;;;;;;;;;;23.65;64.49;94767.47;10526541;28;1912;-76
2023/08/03 12:03:10;;;;;;;;;;;;;;;23.83;63.21;94773.88;10526988;28;2002;-75
2023/08/03 12:08:18;;;;;;;;;;;;;;;25.00;61.50;94772.78;10520722;28;1925;-76
2023/08/03 12:13:24;;;;;;;;;;;;;;;25.49;59.71;94757.53;10521956;28;2246;-74
2023/08/03 12:18:27;;;;;;;;;;;;;;;25.44;58.32;94757.91;10517150;28;1922;-74
2023/08/03 12:23:35;;;;;;;;;;;;;;;25.34;56.58;94759.50;10520981;28;1972;-76
2023/08/03 12:28:58;;;;;;;;;;;;;;;25.28;57.99;94769.31;10528185;28;2024;-76
2023/08/03 12:34:07;;;;;;;;;;;;;;;25.39;56.66;94766.59;10526155;28;2051;-76
2023/08/03 12:39:17;;;;;;;;;;;;;;;24.37;56.75;94780.47;10523516;28;1836;-75
2023/08/03 12:44:30;;;;;;;;;;;;;;;24.90;57.35;94759.81;10526860;28;4872;-75
2023/08/03 12:49:36;;;;;;;;;;;;;;;24.48;54.49;94775.00;10523661;28;1959;-76
2023/08/03 12:54:41;;;;;;;;;;;;;;;23.77;54.99;94769.91;10524056;28;1872;-76
2023/08/03 12:59:44;;;;;;;;;;;;;;;24.53;55.69;94782.88;10521870;28;1925;-76
2023/08/03 13:04:52;;;;;;;;;;;;;;;24.87;56.35;94794.34;10527393;28;1989;-76
2023/08/03 13:09:57;;;;;;;;;;;;;;;24.18;58.90;94817.22;10517663;28;1980;-75
2023/08/03 13:15:04;;;;;;;;;;;;;;;24.43;59.93;94808.31;10526490;28;2103;-75
2023/08/03 13:20:08;;;;;;;;;;;;;;;24.61;57.92;94813.91;10510570;28;2150;-77
2023/08/03 13:25:19;;;;;;;;;;;;;;;24.79;55.67;94812.00;10522740;28;1994;-75
2023/08/03 13:30:29;;;;;;;;;;;;;;;24.28;55.07;94805.50;10521072;28;1873;-75
2023/08/03 13:35:36;;;;;;;;;;;;;;;24.65;56.56;94789.97;10511101;28;1910;-77
2023/08/03 13:40:38;;;;;;;;;;;;;;;24.91;55.07;94797.91;10512900;28;5121;-75
2023/08/03 13:45:43;;;;;;;;;;;;;;;24.55;53.74;94808.00;10525132;28;1906;-75
2023/08/03 13:51:04;;;;;;;;;;;;;;;25.28;52.66;94808.63;10531328;28;1888;-74
2023/08/03 13:56:07;;;;;;;;;;;;;;;25.39;52.29;94805.88;10520593;28;1833;-75
2023/08/03 14:01:12;;;;;;;;;;;;;;;25.07;54.39;94803.09;10525642;28;2167;-75
2023/08/03 14:06:23;;;;;;;;;;;;;;;24.65;52.17;94818.25;10526480;28;2309;-75
2023/08/03 14:11:31;;;;;;;;;;;;;;;24.49;56.73;94823.28;10525166;28;1841;-76
2023/08/03 14:16:59;;;;;;;;;;;;;;;24.54;53.60;94814.66;10515227;28;2169;-75
2023/08/03 14:22:11;;;;;;;;;;;;;;;25.26;53.59;94818.44;10528128;28;2046;-76
2023/08/03 14:27:15;;;;;;;;;;;;;;;25.74;48.25;94816.13;10523835;28;1826;-76
2023/08/03 14:32:27;;;;;;;;;;;;;;;25.04;48.50;94817.56;10525832;28;1508;-77
2023/08/03 14:37:49;;;;;;;;;;;;;;;25.11;49.39;94823.13;10523293;28;1713;-76
2023/08/03 14:42:59;;;;;;;;;;;;;;;24.92;48.34;94828.94;10533240;28;1967;-75
2023/08/03 14:48:08;;;;;;;;;;;;;;;24.39;50.53;94821.28;10508832;28;1642;-77
2023/08/03 14:53:21;;;;;;;;;;;;;;;24.28;51.85;94838.44;10537276;28;1469;-76
2023/08/03 14:58:26;;;;;;;;;;;;;;;24.12;51.79;94835.22;10541368;28;1642;-74
2023/08/03 15:03:37;;;;;;;;;;;;;;;24.17;52.05;94821.13;10540268;28;1910;-74
2023/08/03 15:08:43;;;;;;;;;;;;;;;24.99;48.83;94823.44;10513523;28;1533;-75
2023/08/03 15:13:53;;;;;;;;;;;;;;;24.64;50.91;94833.16;10518946;28;1530;-76
2023/08/03 15:19:05;;;;;;;;;;;;;;;24.74;53.30;94835.16;10534941;28;1515;-75
2023/08/03 15:24:33;;;;;;;;;;;;;;;24.33;54.23;94834.56;10538708;28;1913;-76
2023/08/03 15:29:39;;;;;;;;;;;;;;;24.90;51.72;94828.53;10539856;28;1818;-75
2023/08/03 15:34:48;;;;;;;;;;;;;;;24.54;51.98;94828.41;10535822;28;1548;-74
2023/08/03 15:39:55;;;;;;;;;;;;;;;24.29;54.77;94822.75;10538338;28;2047;-73
2023/08/03 15:45:04;;;;;;;;;;;;;;;23.88;55.45;94824.88;10537432;28;1974;-74
2023/08/03 15:50:16;;;;;;;;;;;;;;;23.96;55.57;94845.69;10543367;28;1477;-73
2023/08/03 15:55:28;;;;;;;;;;;;;;;23.88;56.15;94835.84;10534547;28;1532;-76
2023/08/03 16:00:35;;;;;;;;;;;;;;;23.96;55.76;94835.50;10539470;28;2295;-74
2023/08/03 16:05:40;;;;;;;;;;;;;;;24.85;54.90;94842.66;10518835;28;1898;-74
2023/08/03 16:10:44;;;;;;;;;;;;;;;24.63;52.58;94837.09;10538114;28;1597;-75
2023/08/03 16:15:49;;;;;;;;;;;;;;;24.25;53.85;94828.25;10517353;28;1555;-74
2023/08/03 16:20:57;;;;;;;;;;;;;;;24.00;54.38;94822.59;10539885;28;1485;-79
2023/08/03 16:26:11;;;;;;;;;;;;;;;24.24;55.60;94807.44;10535740;28;1977;-77
2023/08/03 16:31:29;;;;;;;;;;;;;;;24.25;55.01;94824.72;10535418;28;1715;-80
2023/08/03 16:36:35;;;;;;;;;;;;;;;23.78;55.42;94826.34;10528136;28;1469;-78
2023/08/03 16:41:52;;;;;;;;;;;;;;;23.66;56.97;94830.19;10535781;28;1894;-78
2023/08/03 16:46:58;;;;;;;;;;;;;;;23.62;57.41;94818.41;10512256;28;1481;-78
2023/08/03 16:52:16;;;;;;;;;;;;;;;23.73;59.84;94824.00;10526861;28;1572;-79
2023/08/03 16:57:31;;;;;;;;;;;;;;;23.44;60.83;94823.72;10526326;28;2598;-78
2023/08/03 17:02:37;;;;;;;;;;;;;;;23.53;59.40;94820.66;10531929;28;1906;-79
2023/08/03 17:07:55;;;;;;;;;;;;;;;23.42;61.18;94826.06;10522130;28;1872;-78
2023/08/03 17:13:00;;;;;;;;;;;;;;;23.30;60.77;94826.34;10525972;28;1960;-79
2023/08/03 17:18:10;;;;;;;;;;;;;;;23.12;62.41;94825.38;10501832;28;2136;-77
2023/08/03 17:23:16;;;;;;;;;;;;;;;23.20;67.17;94829.75;10525959;28;1902;-79
2023/08/03 17:28:23;;;;;;;;;;;;;;;23.37;81.67;94833.84;10504395;28;1906;-79
2023/08/03 17:33:29;;;;;;;;;;;;;;;23.24;87.30;94840.78;10524226;28;1944;-79
2023/08/03 17:38:40;;;;;;;;;;;;;;;22.85;93.76;94841.91;10526697;28;2083;-80
2023/08/03 17:43:44;;;;;;;;;;;;;;;22.66;95.72;94848.34;10524314;28;4529;-79
2023/08/03 17:48:49;;;;;;;;;;;;;;;22.54;98.55;94865.03;10510863;28;1900;-78
2023/08/03 17:54:06;;;;;;;;;;;;;;;22.25;98.52;94860.31;10519191;28;2040;-77
2023/08/03 17:59:17;;;;;;;;;;;;;;;22.05;100.00;94854.94;10523445;28;2002;-77
2023/08/03 18:04:26;;;;;;;;;;;;;;;21.83;100.00;94864.00;10500782;28;1972;-77
2023/08/03 18:09:33;;;;;;;;;;;;;;;21.66;100.00;94867.22;10515805;28;1943;-77
2023/08/03 18:14:39;;;;;;;;;;;;;;;21.52;100.00;94870.53;10519843;28;2091;-78
2023/08/03 18:19:44;;;;;;;;;;;;;;;21.31;100.00;94866.28;10518801;28;1840;-78
2023/08/03 18:24:48;;;;;;;;;;;;;;;21.15;100.00;94883.91;10519288;28;1975;-78
2023/08/03 18:29:54;;;;;;;;;;;;;;;21.28;100.00;94888.03;10500774;28;1920;-76
2023/08/03 18:35:05;;;;;;;;;;;;;;;21.31;100.00;94893.63;10514036;28;2119;-76
2023/08/03 18:40:11;;;;;;;;;;;;;;;21.16;100.00;94907.34;10527343;28;1898;-76
2023/08/03 18:45:14;;;;;;;;;;;;;;;21.08;100.00;94911.09;10522603;28;4505;-74
2023/08/03 18:50:26;;;;;;;;;;;;;;;21.02;100.00;94910.59;10519049;28;2126;-75
2023/08/03 18:55:30;;;;;;;;;;;;;;;20.95;100.00;94919.44;10518561;28;1855;-76
2023/08/03 19:00:45;;;;;;;;;;;;;;;20.91;100.00;94924.03;10519619;28;1946;-75
2023/08/03 19:05:52;;;;;;;;;;;;;;;20.84;100.00;94928.56;10520879;28;1910;-74
2023/08/03 19:10:56;;;;;;;;;;;;;;;20.88;100.00;94943.88;10508092;28;1834;-76
2023/08/03 19:16:10;;;;;;;;;;;;;;;20.80;100.00;94936.69;10524445;28;1880;-75
2023/08/03 19:21:23;;;;;;;;;;;;;;;20.77;100.00;94948.34;10511477;28;1913;-74
2023/08/03 19:26:35;;;;;;;;;;;;;;;20.57;100.00;94941.28;10517535;28;1948;-76
2023/08/03 19:31:46;;;;;;;;;;;;;;;20.48;100.00;94961.34;10520591;28;1904;-76
2023/08/03 19:36:52;;;;;;;;;;;;;;;20.44;100.00;94968.66;10512506;28;1949;-75
2023/08/03 19:42:04;;;;;;;;;;;;;;;20.37;100.00;94979.44;10521916;28;4473;-76
2023/08/03 19:47:09;;;;;;;;;;;;;;;20.21;100.00;94986.84;10511949;28;1946;-76
2023/08/03 19:52:20;;;;;;;;;;;;;;;20.25;100.00;94995.91;10527479;28;1849;-76
2023/08/03 19:57:28;;;;;;;;;;;;;;;20.39;100.00;94995.44;10508553;28;1930;-76
2023/08/03 20:02:39;;;;;;;;;;;;;;;20.41;100.00;94979.50;10529090;28;1915;-78
2023/08/03 20:07:47;;;;;;;;;;;;;;;20.42;100.00;95003.72;10531476;28;1934;-75
2023/08/03 20:12:52;;;;;;;;;;;;;;;20.41;100.00;95014.97;10525752;28;1948;-75
2023/08/03 20:18:18;;;;;;;;;;;;;;;20.34;100.00;95048.34;10522347;28;1885;-74
2023/08/03 20:23:28;;;;;;;;;;;;;;;20.25;100.00;95053.22;10521770;28;2003;-76
2023/08/03 20:28:33;;;;;;;;;;;;;;;20.07;100.00;95054.69;10524107;28;1869;-74
2023/08/03 20:33:42;;;;;;;;;;;;;;;19.38;100.00;95062.97;10527162;28;2015;-75
2023/08/03 20:38:46;;;;;;;;;;;;;;;18.52;100.00;95088.78;10524821;28;2322;-76
2023/08/03 20:44:10;;;;;;;;;;;;;;;17.88;100.00;95105.69;10509712;28;4554;-75
2023/08/03 20:49:18;;;;;;;;;;;;;;;17.62;100.00;95131.16;10503900;28;1915;-76
2023/08/03 20:54:31;;;;;;;;;;;;;;;17.55;100.00;95128.19;10503561;28;1880;-75
2023/08/03 20:59:43;;;;;;;;;;;;;;;17.40;100.00;95132.31;10529126;28;2045;-74
2023/08/03 21:04:50;;;;;;;;;;;;;;;17.24;100.00;95153.03;10521661;28;2021;-75
2023/08/03 21:09:56;;;;;;;;;;;;;;;17.12;100.00;95156.50;10527935;28;1880;-77
2023/08/03 21:15:03;;;;;;;;;;;;;;;16.94;100.00;95160.44;10524494;28;1860;-77
2023/08/03 21:20:07;;;;;;;;;;;;;;;16.82;100.00;95163.06;10519258;28;1884;-77
2023/08/03 21:30:32;;;;;;;;;;;;;;;16.54;100.00;95177.06;10514052;28;2020;-79
2023/08/03 21:35:39;;;;;;;;;;;;;;;16.47;100.00;95182.19;10520176;28;2227;-78
2023/08/03 21:40:47;;;;;;;;;;;;;;;16.48;100.00;95178.38;10505482;28;4521;-78
2023/08/03 21:45:51;;;;;;;;;;;;;;;16.40;100.00;95177.25;10502030;28;1991;-79
2023/08/03 21:50:56;;;;;;;;;;;;;;;16.47;100.00;95185.69;10502362;28;1936;-78
2023/08/03 21:56:01;;;;;;;;;;;;;;;16.60;100.00;95183.09;10524349;28;1900;-77
2023/08/03 22:01:12;;;;;;;;;;;;;;;16.59;100.00;95192.34;10519164;28;1877;-78
2023/08/03 22:06:15;;;;;;;;;;;;;;;16.56;100.00;95185.69;10515675;28;2107;-78
2023/08/03 22:11:23;;;;;;;;;;;;;;;16.58;100.00;95188.84;10502989;28;1890;-79
2023/08/03 22:16:28;;;;;;;;;;;;;;;16.56;100.00;95193.81;10515491;28;1962;-79
2023/08/03 22:21:38;;;;;;;;;;;;;;;16.45;100.00;95184.44;10516718;28;2289;-79
2023/08/03 22:26:55;;;;;;;;;;;;;;;16.43;100.00;95202.97;10518862;28;2057;-79
2023/08/03 22:31:58;;;;;;;;;;;;;;;16.33;100.00;95216.88;10523564;28;2349;-78
2023/08/03 22:37:02;;;;;;;;;;;;;;;16.30;100.00;95212.09;10515623;28;1917;-77
2023/08/03 22:42:12;;;;;;;;;;;;;;;16.21;100.00;95226.44;10521873;28;4553;-77
2023/08/03 22:47:19;;;;;;;;;;;;;;;16.17;100.00;95198.41;10515168;28;1914;-79
2023/08/03 22:52:24;;;;;;;;;;;;;;;16.06;100.00;95197.16;10518289;28;1900;-78
2023/08/03 22:57:30;;;;;;;;;;;;;;;16.11;100.00;95215.16;10538310;28;1850;-77
2023/08/03 23:02:33;;;;;;;;;;;;;;;16.14;100.00;95220.72;10521899;28;1902;-77
2023/08/03 23:07:39;;;;;;;;;;;;;;;16.11;100.00;95232.22;10519108;28;2024;-78
2023/08/03 23:12:44;;;;;;;;;;;;;;;16.05;100.00;95227.31;10520802;28;1975;-77
2023/08/03 23:17:52;;;;;;;;;;;;;;;16.02;100.00;95236.06;10518832;28;1940;-77
2023/08/03 23:22:56;;;;;;;;;;;;;;;15.97;100.00;95279.59;10535846;27;1843;-77
2023/08/03 23:28:05;;;;;;;;;;;;;;;15.89;100.00;95294.75;10530400;28;2545;-77
2023/08/03 23:33:26;;;;;;;;;;;;;;;15.79;100.00;95290.44;10520529;28;1894;-77
2023/08/03 23:38:30;;;;;;;;;;;;;;;15.67;100.00;95284.84;10538768;28;1886;-78
2023/08/03 23:43:51;;;;;;;;;;;;;;;15.49;100.00;95275.88;10527969;28;4584;-77
2023/08/03 23:48:57;;;;;;;;;;;;;;;15.43;100.00;95276.34;10522721;28;2028;-77
2023/08/03 23:54:04;;;;;;;;;;;;;;;15.43;100.00;95273.63;10541971;27;1839;-77
2023/08/03 23:59:23;;;;;;;;;;;;;;;15.38;100.00;95275.38;10525515;28;1965;-76
